Time;durP1;ratioP1;P1;durP2;ratioP2;P2;SDS_P1;SDS_P2;PMS_P1;PMS_P2;Temp;Humidity;BMP_temperature;BMP_pressure;BME280_temperature;BME280_humidity;BME280_pressure;Samples;Min_cycle;Max_cycle;Signal;HPM_P1;HPM_P2
2022/05/17 00:02:12;;;;;;;24.45;9.10;;;14.50;1.00;;;;;;4918573;29;20047;-84
2022/05/17 00:04:38;;;;;;;17.15;8.68;;;14.50;1.00;;;;;;4900328;29;20044;-83
2022/05/17 00:07:04;;;;;;;19.92;8.82;;;14.40;1.00;;;;;;4900386;29;20374;-84
2022/05/17 00:09:31;;;;;;;18.70;9.20;;;14.40;1.00;;;;;;4900037;29;20676;-83
2022/05/17 00:11:59;;;;;;;17.35;8.82;;;14.40;1.00;;;;;;4900295;29;20551;-84
2022/05/17 00:14:24;;;;;;;20.52;9.70;;;14.30;1.00;;;;;;4900885;29;20118;-84
2022/05/17 00:16:51;;;;;;;22.83;9.57;;;14.30;1.00;;;;;;4919895;29;20711;-84
2022/05/17 00:19:20;;;;;;;21.30;9.75;;;14.30;1.00;;;;;;4884689;29;20154;-84
2022/05/17 00:21:47;;;;;;;23.67;9.65;;;14.30;1.00;;;;;;4900244;29;20509;-83
2022/05/17 00:24:18;;;;;;;23.17;10.00;;;14.20;1.00;;;;;;4915792;29;20036;-83
2022/05/17 00:26:44;;;;;;;20.13;9.90;;;14.40;19.00;;;;;;4883696;29;20068;-84
2022/05/17 00:29:11;;;;;;;26.10;11.02;;;14.20;1.00;;;;;;4882423;29;20548;-84
2022/05/17 00:31:43;;;;;;;23.30;9.98;;;14.30;33.20;;;;;;4903133;29;20051;-84
2022/05/17 00:34:09;;;;;;;22.20;9.98;;;14.20;1.00;;;;;;4902114;29;20079;-84
2022/05/17 00:36:35;;;;;;;24.50;10.35;;;14.20;28.40;;;;;;4901978;29;20451;-84
2022/05/17 00:39:02;;;;;;;19.30;10.35;;;14.20;2.40;;;;;;4900031;29;20176;-84
2022/05/17 00:41:28;;;;;;;24.20;10.70;;;14.20;1.00;;;;;;4884047;29;20342;-83
2022/05/17 00:46:46;;;;;;;25.75;10.55;;;14.10;1.00;;;;;;4900500;29;20419;-83
2022/05/17 00:49:17;;;;;;;29.48;11.27;;;14.10;24.40;;;;;;4887819;29;20048;-84
2022/05/17 00:51:44;;;;;;;21.95;10.55;;;14.10;26.20;;;;;;4931737;28;20516;-85
2022/05/17 00:54:14;;;;;;;32.03;10.90;;;14.10;33.20;;;;;;4931521;28;20067;-84
2022/05/17 00:56:51;;;;;;;21.02;10.45;;;14.00;1.00;;;;;;4897916;29;20145;-84
2022/05/17 00:59:17;;;;;;;24.65;9.93;;;14.00;8.10;;;;;;4905431;29;20037;-84
2022/05/17 01:01:43;;;;;;;22.77;10.88;;;14.00;67.40;;;;;;4883642;29;20051;-85
2022/05/17 01:04:20;;;;;;;23.73;9.75;;;13.90;19.10;;;;;;4901151;29;20540;-84
2022/05/17 01:07:05;;;;;;;23.98;9.88;;;13.90;27.70;;;;;;4882934;29;20051;-83
2022/05/17 01:09:34;;;;;;;20.80;9.80;;;13.90;90.90;;;;;;4886832;29;20043;-84
2022/05/17 01:12:00;;;;;;;30.33;10.23;;;13.90;93.30;;;;;;4887360;29;20044;-83
2022/05/17 01:17:11;;;;;;;25.00;10.35;;;13.80;93.40;;;;;;4903105;29;20043;-84
2022/05/17 01:19:44;;;;;;;20.85;9.55;;;13.80;66.10;;;;;;4887391;29;20051;-84
2022/05/17 01:22:10;;;;;;;21.23;9.80;;;13.80;90.50;;;;;;4888453;29;20123;-83
2022/05/17 01:24:36;;;;;;;20.98;9.23;;;13.80;99.90;;;;;;4905030;29;20406;-84
2022/05/17 01:27:12;;;;;;;23.23;9.02;;;13.70;99.90;;;;;;4905520;29;20079;-84
2022/05/17 01:29:43;;;;;;;19.00;9.50;;;13.70;99.90;;;;;;4905136;29;20044;-84
2022/05/17 01:32:11;;;;;;;21.23;9.50;;;13.70;99.90;;;;;;4901072;29;20256;-83
2022/05/17 01:34:37;;;;;;;19.75;9.13;;;13.70;99.90;;;;;;4904943;29;20424;-82
2022/05/17 01:37:04;;;;;;;24.88;10.23;;;13.70;99.90;;;;;;4933173;28;20051;-84
2022/05/17 01:39:31;;;;;;;23.83;10.25;;;13.70;99.90;;;;;;4903935;29;20082;-84
2022/05/17 01:41:57;;;;;;;19.35;9.35;;;13.70;99.90;;;;;;4905739;29;20160;-84
2022/05/17 01:44:23;;;;;;;19.30;9.57;;;13.80;99.90;;;;;;4906164;29;20516;-84
2022/05/17 01:46:49;;;;;;;22.35;9.25;;;13.70;99.90;;;;;;4905351;29;20059;-83
2022/05/17 01:49:18;;;;;;;20.70;9.90;;;13.70;99.90;;;;;;4887009;29;20086;-84
2022/05/17 01:51:51;;;;;;;22.60;9.68;;;13.70;99.90;;;;;;4925593;29;20071;-84
2022/05/17 01:54:20;;;;;;;20.38;9.18;;;13.60;99.90;;;;;;4920901;29;20267;-83
2022/05/17 01:56:47;;;;;;;21.13;9.88;;;13.60;99.90;;;;;;4904270;29;20048;-84
2022/05/17 01:59:13;;;;;;;25.58;9.55;;;13.60;99.90;;;;;;4904790;29;20103;-84
2022/05/17 02:01:39;;;;;;;21.17;9.80;;;13.60;99.90;;;;;;4903643;29;20040;-84
2022/05/17 02:04:05;;;;;;;23.75;9.80;;;13.50;99.90;;;;;;4922329;29;20035;-83
2022/05/17 02:06:31;;;;;;;21.75;9.50;;;13.50;99.90;;;;;;4904528;29;20090;-84
2022/05/17 02:08:56;;;;;;;20.25;9.18;;;13.50;99.90;;;;;;4903590;29;20043;-84
2022/05/17 02:11:22;;;;;;;23.60;8.88;;;13.50;99.90;;;;;;4903071;29;20079;-84
2022/05/17 02:13:48;;;;;;;21.23;9.00;;;13.50;99.90;;;;;;4933406;28;20047;-84
2022/05/17 02:16:13;;;;;;;24.10;9.35;;;13.50;99.90;;;;;;4887496;29;20445;-83
2022/05/17 02:18:39;;;;;;;20.40;8.85;;;13.50;99.90;;;;;;4904892;29;20051;-84
2022/05/17 02:21:05;;;;;;;20.88;9.63;;;13.50;99.90;;;;;;4903143;29;20039;-84
2022/05/17 02:23:31;;;;;;;19.92;9.55;;;13.40;99.90;;;;;;4902604;29;20536;-84
2022/05/17 02:25:56;;;;;;;21.83;9.88;;;13.40;99.90;;;;;;4902422;29;20039;-84
2022/05/17 02:28:23;;;;;;;20.98;8.93;;;13.40;99.90;;;;;;4870211;29;20060;-84
2022/05/17 02:30:49;;;;;;;23.70;9.57;;;13.40;99.90;;;;;;4900204;29;20123;-84
2022/05/17 02:33:16;;;;;;;23.00;8.85;;;13.30;99.90;;;;;;4882088;29;20071;-84
2022/05/17 02:35:42;;;;;;;19.52;9.70;;;13.30;99.90;;;;;;4867225;29;20386;-84
2022/05/17 02:38:09;;;;;;;20.40;8.95;;;13.30;99.90;;;;;;4880334;29;20044;-84
2022/05/17 02:40:36;;;;;;;21.20;10.02;;;13.20;99.90;;;;;;4882251;29;20111;-83
2022/05/17 02:43:03;;;;;;;29.20;10.10;;;13.20;99.90;;;;;;4881827;29;20134;-85
2022/05/17 02:45:29;;;;;;;26.77;10.25;;;13.20;99.90;;;;;;4881963;29;20043;-83
2022/05/17 02:47:55;;;;;;;17.80;9.57;;;13.20;99.90;;;;;;4881702;29;20048;-83
2022/05/17 02:50:21;;;;;;;19.27;9.40;;;13.10;99.90;;;;;;4866982;29;20044;-84
2022/05/17 02:52:46;;;;;;;22.85;9.05;;;13.10;99.90;;;;;;4881840;29;20040;-83
2022/05/17 02:55:13;;;;;;;18.60;9.32;;;13.20;99.90;;;;;;4882802;29;20083;-83
2022/05/17 02:57:39;;;;;;;24.33;10.32;;;13.20;99.90;;;;;;4881654;29;20717;-85
2022/05/17 03:00:10;;;;;;;20.08;10.05;;;13.20;99.90;;;;;;4881738;29;20319;-84
2022/05/17 03:02:36;;;;;;;21.63;9.45;;;13.20;99.90;;;;;;4882431;29;20490;-84
2022/05/17 03:05:02;;;;;;;22.42;10.02;;;13.20;99.90;;;;;;4899725;29;20095;-84
2022/05/17 03:07:27;;;;;;;25.52;9.65;;;13.20;99.90;;;;;;4868010;29;20063;-84
2022/05/17 03:09:53;;;;;;;20.35;10.00;;;13.20;99.90;;;;;;4866401;29;20046;-84
2022/05/17 03:12:19;;;;;;;20.02;9.82;;;13.10;99.90;;;;;;4882749;29;20111;-85
2022/05/17 03:14:44;;;;;;;20.33;9.75;;;13.10;99.90;;;;;;4882312;29;20044;-84
2022/05/17 03:17:12;;;;;;;17.83;9.00;;;13.00;99.90;;;;;;4868088;29;20070;-82
2022/05/17 03:19:38;;;;;;;21.20;9.70;;;13.10;99.90;;;;;;4865806;29;20138;-82
2022/05/17 03:22:04;;;;;;;22.30;10.25;;;13.10;99.90;;;;;;4864209;29;20068;-83
2022/05/17 03:24:31;;;;;;;24.67;10.13;;;13.00;99.90;;;;;;4881918;29;20372;-83
2022/05/17 03:26:57;;;;;;;23.30;10.50;;;13.00;99.90;;;;;;4886568;29;20058;-83
2022/05/17 03:29:23;;;;;;;17.88;10.02;;;13.00;99.90;;;;;;4899760;29;20063;-83
2022/05/17 03:31:49;;;;;;;23.17;10.38;;;12.90;99.90;;;;;;4886369;29;20047;-84
2022/05/17 03:34:15;;;;;;;27.42;11.05;;;12.90;99.90;;;;;;4903293;29;20043;-84
2022/05/17 03:36:40;;;;;;;18.92;10.02;;;12.90;99.90;;;;;;4901286;29;20044;-84
2022/05/17 03:39:06;;;;;;;20.45;10.45;;;13.10;99.90;;;;;;4899876;29;20382;-84
2022/05/17 03:41:32;;;;;;;19.90;10.57;;;12.90;99.90;;;;;;4900236;29;20374;-84
2022/05/17 03:43:57;;;;;;;22.02;10.40;;;12.90;99.90;;;;;;4890920;29;20046;-84
2022/05/17 03:46:23;;;;;;;22.92;10.75;;;12.90;99.90;;;;;;4901341;29;20383;-84
2022/05/17 03:48:49;;;;;;;21.23;10.63;;;12.90;99.90;;;;;;4900105;29;20401;-84
2022/05/17 03:51:17;;;;;;;22.92;11.07;;;12.80;99.90;;;;;;4901568;29;20036;-84
2022/05/17 03:53:43;;;;;;;24.95;11.38;;;12.80;99.90;;;;;;4885164;29;20044;-84
2022/05/17 03:56:09;;;;;;;27.27;11.43;;;12.90;99.90;;;;;;4888777;29;20039;-84
2022/05/17 03:58:35;;;;;;;22.65;11.65;;;12.80;99.90;;;;;;4904216;29;20095;-84
2022/05/17 04:01:02;;;;;;;24.42;10.85;;;12.90;99.90;;;;;;4888925;29;20037;-84
2022/05/17 04:03:27;;;;;;;25.00;12.13;;;12.90;99.90;;;;;;4902834;29;20209;-84
2022/05/17 04:05:53;;;;;;;25.60;11.75;;;13.00;99.90;;;;;;4907430;29;20378;-84
2022/05/17 04:08:19;;;;;;;27.70;11.27;;;13.00;99.90;;;;;;4888326;29;20668;-84
2022/05/17 04:10:44;;;;;;;26.20;11.75;;;13.00;99.90;;;;;;4902969;29;20064;-84
2022/05/17 04:13:10;;;;;;;24.27;10.93;;;13.10;99.90;;;;;;4889520;29;20035;-84
2022/05/17 04:15:35;;;;;;;21.95;11.88;;;13.20;99.90;;;;;;4906095;29;20127;-84
2022/05/17 04:18:01;;;;;;;21.05;10.55;;;13.30;99.90;;;;;;4883001;29;20046;-84
2022/05/17 04:20:27;;;;;;;22.75;11.48;;;13.40;99.90;;;;;;4889810;29;20454;-84
2022/05/17 04:22:55;;;;;;;26.45;11.35;;;13.50;99.90;;;;;;4907371;29;20277;-84
2022/05/17 04:25:26;;;;;;;23.83;11.70;;;13.50;99.90;;;;;;4909098;29;20047;-84
2022/05/17 04:27:52;;;;;;;22.52;11.57;;;13.70;99.90;;;;;;4903696;29;20513;-83
2022/05/17 04:30:19;;;;;;;19.65;10.50;;;13.80;99.90;;;;;;4888552;29;20413;-85
2022/05/17 04:32:46;;;;;;;20.30;10.75;;;13.90;99.90;;;;;;4917853;29;20039;-84
2022/05/17 04:35:13;;;;;;;19.00;9.60;;;14.00;99.90;;;;;;4904944;29;20417;-84
2022/05/17 04:37:39;;;;;;;21.02;10.52;;;14.20;99.90;;;;;;4907798;29;20149;-84
2022/05/17 04:40:08;;;;;;;22.40;9.68;;;14.40;99.90;;;;;;4922848;29;20109;-84
2022/05/17 04:42:38;;;;;;;22.42;9.93;;;14.50;64.10;;;;;;4901829;29;20047;-84
2022/05/17 04:45:10;;;;;;;18.73;9.43;;;14.60;41.70;;;;;;4906782;29;20748;-85
2022/05/17 04:47:38;;;;;;;17.65;9.75;;;14.80;1.00;;;;;;4893552;29;20074;-84
2022/05/17 04:50:05;;;;;;;21.17;9.77;;;14.90;1.00;;;;;;4897430;29;20087;-84
2022/05/17 04:52:31;;;;;;;19.67;9.13;;;15.00;1.00;;;;;;4903510;29;20082;-84
2022/05/17 04:54:57;;;;;;;17.98;9.27;;;15.00;1.00;;;;;;4905232;29;20079;-84
2022/05/17 04:57:23;;;;;;;22.05;9.55;;;15.20;1.00;;;;;;4902335;29;20466;-84
2022/05/17 04:59:48;;;;;;;20.65;8.98;;;15.30;1.00;;;;;;4905228;29;20031;-84
2022/05/17 05:02:14;;;;;;;14.18;7.97;;;15.30;99.90;;;;;;4876970;29;20131;-83
2022/05/17 05:04:39;;;;;;;15.65;8.45;;;15.30;99.90;;;;;;4903441;29;20050;-83
2022/05/17 05:07:06;;;;;;;15.48;8.25;;;15.30;99.90;;;;;;4905723;29;20044;-84
2022/05/17 05:09:32;;;;;;;16.48;8.00;;;15.30;99.90;;;;;;4879574;29;20054;-84
2022/05/17 05:11:59;;;;;;;16.48;8.10;;;15.30;99.90;;;;;;4907565;29;20466;-83
2022/05/17 05:14:25;;;;;;;18.00;7.55;;;15.30;99.90;;;;;;4902224;29;20398;-84
2022/05/17 05:16:51;;;;;;;17.83;8.63;;;15.30;99.90;;;;;;4885958;29;20043;-83
2022/05/17 05:19:17;;;;;;;16.65;8.38;;;15.30;99.90;;;;;;4902936;29;20127;-82
2022/05/17 05:21:43;;;;;;;17.17;8.05;;;15.40;99.90;;;;;;4886436;29;20044;-83
2022/05/17 05:24:11;;;;;;;19.17;7.88;;;15.50;99.90;;;;;;4905372;29;21915;-84
2022/05/17 05:26:38;;;;;;;16.98;8.27;;;15.40;99.90;;;;;;4901150;29;20516;-83
2022/05/17 05:29:04;;;;;;;17.60;8.15;;;15.50;99.90;;;;;;4915783;29;21010;-83
2022/05/17 05:31:34;;;;;;;14.57;7.35;;;15.50;99.90;;;;;;4900408;29;20039;-83
2022/05/17 05:34:02;;;;;;;22.33;7.95;;;15.60;99.90;;;;;;4885681;29;20055;-83
2022/05/17 05:36:30;;;;;;;21.30;8.85;;;15.60;99.90;;;;;;4886694;29;20043;-83
2022/05/17 05:38:57;;;;;;;18.05;9.02;;;15.70;99.90;;;;;;4918174;29;20036;-84
2022/05/17 05:41:22;;;;;;;16.63;7.57;;;15.80;99.90;;;;;;4905073;29;20059;-84
2022/05/17 05:43:48;;;;;;;15.35;7.68;;;15.90;99.90;;;;;;4903548;29;20040;-83
2022/05/17 05:46:14;;;;;;;19.10;7.28;;;16.10;99.90;;;;;;4903651;29;20451;-84
2022/05/17 05:48:40;;;;;;;17.40;7.18;;;16.10;99.90;;;;;;4889071;29;20457;-83
2022/05/17 05:51:06;;;;;;;16.88;7.93;;;16.40;99.90;;;;;;4883989;29;20050;-83
2022/05/17 05:53:35;;;;;;;14.18;6.50;;;16.40;99.90;;;;;;4900412;29;20039;-84
2022/05/17 05:56:05;;;;;;;13.10;6.00;;;16.60;99.90;;;;;;4904925;29;20047;-84
2022/05/17 05:58:39;;;;;;;17.30;6.72;;;16.70;99.90;;;;;;4904312;29;20374;-83
2022/05/17 06:01:06;;;;;;;14.65;6.45;;;16.80;99.90;;;;;;4889180;29;20122;-83
2022/05/17 06:03:33;;;;;;;14.32;6.05;;;16.90;99.90;;;;;;4918429;29;20061;-84
2022/05/17 06:05:59;;;;;;;12.75;6.68;;;16.90;99.90;;;;;;4905339;29;20549;-83
2022/05/17 06:08:24;;;;;;;15.15;6.20;;;16.80;99.90;;;;;;4890930;29;20055;-83
2022/05/17 06:10:50;;;;;;;18.17;6.25;;;16.80;99.90;;;;;;4908968;29;20103;-84
2022/05/17 06:13:19;;;;;;;13.93;5.30;;;17.00;99.90;;;;;;4906986;29;20542;-84
2022/05/17 06:15:46;;;;;;;12.65;5.30;;;17.10;99.90;;;;;;4906793;29;20110;-84
2022/05/17 06:18:12;;;;;;;12.38;5.63;;;17.10;99.90;;;;;;4905705;29;20044;-84
2022/05/17 06:20:39;;;;;;;11.38;5.20;;;17.20;99.90;;;;;;4907753;29;20043;-83
2022/05/17 06:23:06;;;;;;;14.02;5.65;;;17.30;99.90;;;;;;4907753;29;20055;-84
2022/05/17 06:25:35;;;;;;;15.45;5.53;;;17.40;99.90;;;;;;4892502;29;20046;-83
2022/05/17 06:28:01;;;;;;;10.95;5.40;;;17.50;99.90;;;;;;4905839;29;20071;-83
2022/05/17 06:30:27;;;;;;;12.88;5.20;;;17.50;78.70;;;;;;4924329;29;20398;-84
2022/05/17 06:32:52;;;;;;;12.15;5.47;;;17.40;77.50;;;;;;4910733;29;20449;-81
2022/05/17 06:35:18;;;;;;;13.68;5.68;;;17.40;51.20;;;;;;4886280;29;20034;-83
2022/05/17 06:37:45;;;;;;;15.07;5.57;;;17.40;59.80;;;;;;4883504;29;20149;-83
2022/05/17 06:40:12;;;;;;;14.35;5.95;;;17.50;89.50;;;;;;4907018;29;20035;-83
2022/05/17 06:42:39;;;;;;;11.45;5.30;;;17.70;86.40;;;;;;4889067;29;20047;-83
2022/05/17 06:45:05;;;;;;;11.90;5.28;;;17.60;12.20;;;;;;4909224;29;20043;-84
2022/05/17 06:47:31;;;;;;;14.18;5.88;;;17.60;53.30;;;;;;4892194;29;20549;-83
2022/05/17 06:49:56;;;;;;;14.52;5.80;;;17.60;38.80;;;;;;4912284;29;20513;-84
2022/05/17 06:52:23;;;;;;;14.75;5.85;;;17.50;1.00;;;;;;4907398;29;20051;-83
2022/05/17 06:54:49;;;;;;;15.05;5.90;;;17.60;20.00;;;;;;4888588;29;20042;-84
2022/05/17 06:57:18;;;;;;;15.77;6.25;;;17.50;43.60;;;;;;4906981;29;20074;-84
2022/05/17 06:59:45;;;;;;;11.75;6.03;;;17.60;36.10;;;;;;4906323;29;20305;-83
2022/05/17 07:02:11;;;;;;;12.15;5.68;;;17.60;70.20;;;;;;4925074;29;20051;-84
2022/05/17 07:04:40;;;;;;;12.57;5.72;;;17.70;90.70;;;;;;4908682;29;20429;-84
2022/05/17 07:07:08;;;;;;;13.82;6.53;;;17.80;99.90;;;;;;4909141;29;20051;-84
2022/05/17 07:09:36;;;;;;;15.38;5.85;;;18.00;3.20;;;;;;4891046;29;20040;-84
2022/05/17 07:14:45;;;;;;;16.13;6.15;;;18.30;1.00;;;;;;4925871;29;20044;-83
2022/05/17 07:17:15;;;;;;;12.07;5.47;;;18.20;1.00;;;;;;4905794;29;20032;-84
2022/05/17 07:19:42;;;;;;;12.02;5.53;;;18.20;1.00;;;;;;4907077;29;20334;-84
2022/05/17 07:22:08;;;;;;;18.77;6.40;;;18.40;1.00;;;;;;4904111;29;20357;-83
2022/05/17 07:24:34;;;;;;;16.88;6.20;;;18.30;1.00;;;;;;4890223;29;20040;-84
2022/05/17 07:27:01;;;;;;;13.20;5.78;;;18.30;1.00;;;;;;4906500;29;20155;-84
2022/05/17 07:29:27;;;;;;;12.02;5.85;;;18.20;9.60;;;;;;4908731;29;20127;-83
2022/05/17 07:31:53;;;;;;;15.00;5.90;;;18.50;85.70;;;;;;4888107;29;20134;-84
2022/05/17 07:34:19;;;;;;;14.48;5.93;;;18.50;1.00;;;;;;4906495;29;20134;-83
2022/05/17 07:36:45;;;;;;;12.50;5.50;;;18.80;80.00;;;;;;4890802;29;20047;-83
2022/05/17 07:39:11;;;;;;;15.48;5.78;;;18.80;1.00;;;;;;4888036;29;20040;-83
2022/05/17 07:41:37;;;;;;;12.05;5.22;;;18.80;1.00;;;;;;4905936;29;20201;-85
2022/05/17 07:44:04;;;;;;;15.48;5.70;;;18.60;1.00;;;;;;4907185;29;20039;-84
2022/05/17 07:46:31;;;;;;;15.85;5.50;;;18.80;1.00;;;;;;4905591;29;20040;-83
2022/05/17 07:48:57;;;;;;;15.50;6.35;;;18.90;1.00;;;;;;4888235;29;20047;-84
2022/05/17 07:51:22;;;;;;;15.10;5.53;;;19.00;1.00;;;;;;4905451;29;20043;-83
2022/05/17 07:53:51;;;;;;;15.48;6.28;;;19.20;1.00;;;;;;4920658;29;20070;-84
2022/05/17 07:56:17;;;;;;;16.48;5.22;;;19.20;1.00;;;;;;4905476;29;20454;-84
2022/05/17 07:58:42;;;;;;;12.60;4.95;;;19.30;1.00;;;;;;4891431;29;20043;-84
2022/05/17 08:01:08;;;;;;;12.57;4.88;;;19.40;1.00;;;;;;4922190;29;20119;-84
2022/05/17 08:03:35;;;;;;;13.15;5.45;;;19.30;1.00;;;;;;4889954;29;20071;-83
2022/05/17 08:06:01;;;;;;;14.05;4.90;;;19.40;1.00;;;;;;4907638;29;20056;-83
2022/05/17 08:08:27;;;;;;;13.82;5.30;;;19.50;99.90;;;;;;4890867;29;20351;-83
2022/05/17 08:10:53;;;;;;;12.15;5.60;;;19.60;1.00;;;;;;4905936;29;20059;-84
2022/05/17 08:13:22;;;;;;;12.07;4.65;;;19.50;1.00;;;;;;4902412;29;20039;-84
2022/05/17 08:15:48;;;;;;;10.82;4.70;;;19.60;99.90;;;;;;4906430;29;20055;-83
2022/05/17 08:18:15;;;;;;;12.05;4.78;;;19.50;1.00;;;;;;4902832;29;20616;-83
2022/05/17 08:20:42;;;;;;;14.13;4.70;;;19.60;1.00;;;;;;4882237;29;20094;-84
2022/05/17 08:23:08;;;;;;;12.90;4.70;;;19.70;1.00;;;;;;4888805;29;20040;-83
2022/05/17 08:28:18;;;;;;;11.23;5.03;;;19.80;99.90;;;;;;4896292;29;20513;-84
2022/05/17 08:30:46;;;;;;;9.55;4.53;;;19.70;99.90;;;;;;4889816;29;20054;-84
2022/05/17 08:33:20;;;;;;;12.90;4.82;;;19.80;1.00;;;;;;4906680;29;20044;-83
2022/05/17 08:35:46;;;;;;;14.25;6.30;;;19.80;99.90;;;;;;4906965;29;20047;-83
2022/05/17 08:38:19;;;;;;;11.93;5.00;;;19.90;99.90;;;;;;4911644;29;20119;-83
2022/05/17 08:41:09;;;;;;;15.35;4.90;;;20.00;99.90;;;;;;4907968;29;20410;-84
2022/05/17 08:44:00;;;;;;;12.98;5.28;;;20.00;99.90;;;;;;4934621;29;20111;-84
2022/05/17 08:46:37;;;;;;;14.70;5.30;;;20.10;99.90;;;;;;4888380;29;20035;-83
2022/05/17 08:49:09;;;;;;;16.27;5.40;;;20.10;99.90;;;;;;4905647;29;20541;-83
2022/05/17 08:51:43;;;;;;;11.00;4.70;;;20.20;99.90;;;;;;4906153;29;20337;-83
2022/05/17 08:54:14;;;;;;;13.48;4.95;;;20.10;99.90;;;;;;4886076;29;20055;-83
2022/05/17 08:56:45;;;;;;;10.60;4.68;;;20.50;99.90;;;;;;4904772;29;20043;-82
2022/05/17 08:59:17;;;;;;;12.35;4.93;;;20.50;99.90;;;;;;4905539;29;20043;-83
2022/05/17 09:02:02;;;;;;;12.15;4.70;;;20.50;99.90;;;;;;4904971;29;20040;-84
2022/05/17 09:04:41;;;;;;;10.18;4.55;;;20.70;99.90;;;;;;4889469;29;20118;-83
2022/05/17 09:07:23;;;;;;;12.48;3.80;;;20.80;99.90;;;;;;4897931;29;20050;-83
2022/05/17 09:10:18;;;;;;;10.15;4.35;;;20.90;99.90;;;;;;4888004;29;20040;-83
2022/05/17 09:12:57;;;;;;;9.35;4.10;;;20.70;99.90;;;;;;4869152;29;20069;-84
2022/05/17 09:15:22;;;;;;;7.15;3.00;;;20.90;99.90;;;;;;4904970;29;20106;-84
2022/05/17 09:17:48;;;;;;;10.00;3.30;;;20.70;99.90;;;;;;4934759;29;20477;-84
2022/05/17 09:20:18;;;;;;;9.30;3.97;;;21.00;99.90;;;;;;4902415;29;20521;-84
2022/05/17 09:22:44;;;;;;;8.32;3.00;;;21.20;99.90;;;;;;4902492;29;20031;-83
2022/05/17 09:25:21;;;;;;;6.40;2.70;;;21.10;99.90;;;;;;4903925;29;20028;-84
2022/05/17 09:27:52;;;;;;;9.27;2.97;;;21.10;99.90;;;;;;4903959;29;20058;-82
2022/05/17 09:30:24;;;;;;;8.80;3.40;;;21.30;99.90;;;;;;4891406;29;20085;-83
2022/05/17 09:33:09;;;;;;;8.52;3.20;;;21.40;99.90;;;;;;4890737;29;20039;-82
2022/05/17 09:36:00;;;;;;;8.45;3.65;;;21.30;99.90;;;;;;4906494;29;20044;-83
2022/05/17 09:38:33;;;;;;;7.55;3.50;;;21.40;99.90;;;;;;4899151;29;20130;-84
2022/05/17 09:41:06;;;;;;;7.10;2.72;;;21.80;99.90;;;;;;4908074;29;20036;-84
2022/05/17 09:44:00;;;;;;;7.28;2.53;;;21.90;99.90;;;;;;4908640;29;20102;-84
2022/05/17 09:46:35;;;;;;;10.80;3.42;;;22.00;99.90;;;;;;4907557;29;20050;-84
2022/05/17 09:52:32;;;;;;;7.47;3.05;;;22.10;99.90;;;;;;4924914;29;20576;-84
2022/05/17 09:55:06;;;;;;;10.98;3.35;;;21.80;99.90;;;;;;4891185;29;20086;-83
2022/05/17 09:57:36;;;;;;;8.85;3.35;;;22.00;99.90;;;;;;4907222;29;20119;-83
2022/05/17 10:00:12;;;;;;;10.50;3.20;;;21.80;99.90;;;;;;4906424;29;20086;-84
2022/05/17 10:03:02;;;;;;;8.32;2.90;;;21.80;99.90;;;;;;4906648;29;20044;-84
2022/05/17 10:05:37;;;;;;;9.55;2.60;;;21.80;99.90;;;;;;4890570;29;20155;-83
2022/05/17 10:08:13;;;;;;;7.75;3.05;;;22.00;99.90;;;;;;4921313;29;20039;-84
2022/05/17 10:10:44;;;;;;;9.30;3.60;;;21.80;99.90;;;;;;4911412;29;20050;-85
2022/05/17 10:13:33;;;;;;;7.70;2.58;;;22.20;99.90;;;;;;4893468;29;20047;-84
2022/05/17 10:16:09;;;;;;;9.85;2.90;;;22.70;99.90;;;;;;4908233;29;20052;-83
2022/05/17 10:18:45;;;;;;;8.63;3.05;;;22.90;99.90;;;;;;4886346;29;20080;-83
2022/05/17 10:21:25;;;;;;;8.95;3.22;;;22.60;99.90;;;;;;4890068;29;20044;-83
2022/05/17 10:24:04;;;;;;;8.30;2.58;;;22.80;99.90;;;;;;4888729;29;20458;-83
2022/05/17 10:26:39;;;;;;;6.88;2.90;;;22.50;99.90;;;;;;4906046;29;20245;-84
2022/05/17 10:29:33;;;;;;;10.93;3.30;;;22.70;99.90;;;;;;4891264;29;20055;-83
2022/05/17 10:32:01;;;;;;;8.25;2.65;;;22.60;99.90;;;;;;4908091;29;20043;-84
2022/05/17 10:34:48;;;;;;;9.25;2.47;;;22.50;99.90;;;;;;4890457;29;20154;-83
2022/05/17 10:37:19;;;;;;;9.25;2.97;;;22.60;99.90;;;;;;4907195;29;20071;-84
2022/05/17 10:40:04;;;;;;;6.32;2.50;;;22.70;99.90;;;;;;4905478;29;20078;-84
2022/05/17 10:42:30;;;;;;;8.05;2.35;;;23.20;99.90;;;;;;4892125;29;20071;-84
2022/05/17 10:44:58;;;;;;;5.55;2.25;;;23.20;99.90;;;;;;4890869;29;20076;-85
2022/05/17 10:47:36;;;;;;;5.90;2.42;;;23.20;99.90;;;;;;4907687;29;20035;-83
2022/05/17 10:50:23;;;;;;;7.43;2.40;;;23.30;99.90;;;;;;4891171;29;20058;-83
2022/05/17 10:53:01;;;;;;;8.98;2.25;;;23.30;99.90;;;;;;4904702;29;20411;-84
2022/05/17 10:55:45;;;;;;;6.13;2.00;;;23.60;99.90;;;;;;4889314;29;20048;-83
2022/05/17 10:58:45;;;;;;;6.53;1.93;;;23.50;99.90;;;;;;4890529;29;20062;-84
2022/05/17 11:01:21;;;;;;;5.80;1.95;;;23.60;99.90;;;;;;4909123;29;20043;-84
2022/05/17 11:04:11;;;;;;;6.80;1.67;;;23.50;99.90;;;;;;4892501;29;20424;-84
2022/05/17 11:06:55;;;;;;;5.35;1.85;;;23.70;99.90;;;;;;4892226;29;20131;-83
2022/05/17 11:09:28;;;;;;;5.13;1.75;;;23.10;99.90;;;;;;4908878;29;20387;-83
2022/05/17 11:12:08;;;;;;;4.13;1.45;;;23.30;99.90;;;;;;4884001;29;20059;-85
2022/05/17 11:14:47;;;;;;;5.90;1.95;;;23.20;99.90;;;;;;4889068;29;20058;-84
2022/05/17 11:17:36;;;;;;;8.90;2.00;;;23.40;99.90;;;;;;4905854;29;20051;-84
2022/05/17 11:20:24;;;;;;;4.05;1.55;;;23.20;99.90;;;;;;4890741;29;20056;-84
2022/05/17 11:23:08;;;;;;;5.07;2.10;;;23.60;99.90;;;;;;4906894;29;20036;-85
2022/05/17 11:26:04;;;;;;;6.83;1.87;;;23.50;99.90;;;;;;4922150;29;20130;-84
2022/05/17 11:28:52;;;;;;;6.43;2.15;;;23.80;99.90;;;;;;4868149;29;20060;-84
2022/05/17 11:31:30;;;;;;;5.75;1.90;;;24.00;99.90;;;;;;4881439;29;20052;-85
2022/05/17 11:34:31;;;;;;;5.05;1.65;;;24.20;99.90;;;;;;4882205;29;20394;-85
2022/05/17 11:37:05;;;;;;;3.97;1.63;;;24.60;99.90;;;;;;4871598;29;20075;-84
2022/05/17 11:39:31;;;;;;;4.00;1.50;;;24.50;99.90;;;;;;4886581;29;20092;-84
2022/05/17 11:42:28;;;;;;;4.68;1.65;;;24.50;98.60;;;;;;4871540;29;20545;-84
2022/05/17 11:44:56;;;;;;;7.50;2.15;;;24.90;99.60;;;;;;4889003;29;20036;-84
2022/05/17 11:47:37;;;;;;;6.57;1.60;;;24.80;98.20;;;;;;4884345;29;20043;-84
2022/05/17 11:50:15;;;;;;;4.57;1.67;;;24.30;98.10;;;;;;4871869;29;20064;-84
2022/05/17 11:52:45;;;;;;;6.03;1.90;;;23.90;96.80;;;;;;4865243;29;20051;-85
2022/05/17 11:55:16;;;;;;;4.95;1.88;;;24.50;98.40;;;;;;4886245;29;20123;-85
2022/05/17 11:57:43;;;;;;;6.80;2.00;;;25.00;99.90;;;;;;4885083;29;20164;-84
2022/05/17 12:00:29;;;;;;;7.07;1.90;;;25.50;99.90;;;;;;4871585;29;20048;-85
2022/05/17 12:03:04;;;;;;;7.97;1.92;;;25.30;99.90;;;;;;4885879;29;20036;-84
2022/05/17 12:05:41;;;;;;;5.70;1.95;;;25.70;99.90;;;;;;4874347;29;20052;-84
2022/05/17 12:08:31;;;;;;;6.53;1.83;;;26.00;99.40;;;;;;4887123;29;20166;-85
2022/05/17 12:11:06;;;;;;;6.45;1.73;;;26.10;99.90;;;;;;4888328;29;20103;-84
2022/05/17 12:13:39;;;;;;;4.90;1.80;;;26.20;96.10;;;;;;4870613;29;20044;-85
2022/05/17 12:16:08;;;;;;;5.28;2.00;;;25.10;93.50;;;;;;4885856;29;20090;-85
2022/05/17 12:18:40;;;;;;;4.35;1.60;;;25.80;94.80;;;;;;4886387;29;20048;-85
2022/05/17 12:21:09;;;;;;;4.57;1.95;;;26.20;94.80;;;;;;4884069;29;20052;-86
2022/05/17 12:23:45;;;;;;;4.35;2.00;;;25.80;92.40;;;;;;4886555;29;20135;-85
2022/05/17 12:26:21;;;;;;;6.07;1.60;;;25.80;91.10;;;;;;4886623;29;20032;-85
2022/05/17 12:28:52;;;;;;;6.05;1.60;;;26.70;96.20;;;;;;4897868;29;20142;-86
2022/05/17 12:31:27;;;;;;;5.97;1.70;;;27.50;96.00;;;;;;4904959;29;20035;-84
2022/05/17 12:33:55;;;;;;;7.47;1.77;;;26.80;87.90;;;;;;4907609;29;20103;-85
2022/05/17 12:36:35;;;;;;;6.45;1.80;;;27.70;95.00;;;;;;4906998;29;20046;-86
2022/05/17 12:44:39;;;;;;;4.55;2.00;;;27.80;92.60;;;;;;4905267;29;20536;-86
2022/05/17 12:47:17;;;;;;;3.78;1.60;;;27.30;72.90;;;;;;4905276;29;20347;-85
2022/05/17 12:49:45;;;;;;;6.43;1.80;;;27.60;80.40;;;;;;4918687;29;20116;-85
2022/05/17 12:52:46;;;;;;;4.25;1.60;;;27.40;67.00;;;;;;4906423;29;20360;-85
2022/05/17 12:55:18;;;;;;;5.28;1.60;;;27.40;66.20;;;;;;4860872;29;20048;-85
2022/05/17 12:57:44;;;;;;;3.65;1.40;;;27.40;66.70;;;;;;4904678;29;20547;-84
2022/05/17 13:00:17;;;;;;;6.68;1.77;;;27.60;67.20;;;;;;4902488;29;20044;-85
2022/05/17 13:02:49;;;;;;;4.20;1.70;;;27.30;62.40;;;;;;4908732;29;20044;-84
2022/05/17 13:05:29;;;;;;;6.47;1.67;;;27.80;68.80;;;;;;4893186;29;20134;-85
2022/05/17 13:08:20;;;;;;;3.80;1.70;;;27.20;61.30;;;;;;4894610;29;20506;-85
2022/05/17 13:11:05;;;;;;;5.70;1.85;;;27.20;56.90;;;;;;4913895;29;20280;-86
2022/05/17 13:13:32;;;;;;;;;;;26.80;57.40;;;;;;4910533;29;20107;-84
2022/05/17 13:16:08;;;;;;;5.03;1.60;;;26.30;57.50;;;;;;4905645;29;19990;-85
2022/05/17 13:18:41;;;;;;;4.65;1.70;;;26.20;54.60;;;;;;4907478;29;20387;-86